Cosco Indonesia — VRHE3 — position and weather

sailwx.info

Track history (hours):
 
Tides and Currents Weather Stations Pressure Air Temp Water Temp Dewpoint Dewpoint Depression Visibility Wind Speed Wind Dir Waves Ship Positions

Cosco Indonesia

Last reported at 2018-Apr-19 22:07 UTC. Time now 2018-Apr-20 05:13 UTC.
Position N 36°51' W 075°37'.

Length 334 m; draft 10.7 m.

Type: Ship (hazmat cat A). MMSI: 477831200.

Date/timePositionNaut miles runAvg speedWind from/ knotsBaromVisibWave heightAir tempDewpointWater temp
2018-Apr-19 22:07N 36°51' W 075°37'414 8.3
2018-Apr-17 20:11N 42°13' W 069°59'2 9.7
2018-Apr-17 19:57N 42°15' W 070°01'4 8.9
2018-Apr-17 19:31N 42°17' W 070°05'5 9.6
2018-Apr-17 19:00N 42°18' W 070°12'510.2
2018-Apr-17 18:30N 42°18' W 070°19'5 9.7
2018-Apr-17 18:00N 42°19' W 070°25'5 9.8
2018-Apr-17 17:30N 42°19' W 070°32'510.1
2018-Apr-17 17:01N 42°19' W 070°39'5 9.8
2018-Apr-17 16:30N 42°21' W 070°45'5 9.8
2018-Apr-17 16:00N 42°24' W 070°50'612.0
2018-Apr-17 15:30N 42°20' W 070°57'3 6.1
2018-Apr-17 15:00N 42°21' W 071°01'0 0.3
2018-Apr-17 14:29N 42°21' W 071°01'0 0.0
2018-Apr-17 13:59N 42°21' W 071°01'0 0.0
2018-Apr-17 13:30N 42°21' W 071°01'0 0.0
2018-Apr-17 12:56N 42°21' W 071°01'0 0.0
2018-Apr-17 12:29N 42°21' W 071°01'0 0.0
2018-Apr-17 11:56N 42°21' W 071°01'0 0.0
2018-Apr-17 11:29N 42°21' W 071°01'0 0.0
2018-Apr-17 10:53N 42°21' W 071°01'0 0.0
2018-Apr-17 10:29N 42°21' W 071°01'0 0.0
2018-Apr-17 09:59N 42°21' W 071°01'0 0.0
2018-Apr-17 09:29N 42°21' W 071°01'0 0.0
2018-Apr-17 08:59N 42°21' W 071°01'0 0.0
2018-Apr-17 08:26N 42°21' W 071°01'0 0.0
2018-Apr-17 07:59N 42°21' W 071°01'0 0.0
2018-Apr-17 07:29N 42°21' W 071°01'0 0.0
2018-Apr-17 06:59N 42°21' W 071°01'0 0.0
2018-Apr-17 06:29N 42°21' W 071°01'0 0.0
2018-Apr-17 05:56N 42°21' W 071°01'0 0.0
2018-Apr-17 05:26N 42°21' W 071°01'0 0.0
2018-Apr-17 04:59N 42°21' W 071°01'0 0.0
2018-Apr-17 04:29N 42°21' W 071°01'0 0.0
2018-Apr-17 03:56N 42°21' W 071°01'0 0.0
2018-Apr-17 03:29N 42°21' W 071°01'0 0.0
2018-Apr-17 02:59N 42°21' W 071°01'0 0.0
2018-Apr-17 02:29N 42°21' W 071°01'0 0.0
2018-Apr-17 01:59N 42°21' W 071°01'0 0.0
2018-Apr-17 01:29N 42°21' W 071°01'0 0.0
2018-Apr-17 00:59N 42°21' W 071°01'0 0.0
2018-Apr-17 00:29N 42°21' W 071°01'0 0.0
2018-Apr-16 23:59N 42°21' W 071°01'0 0.0
2018-Apr-16 23:29N 42°21' W 071°01'0 0.0
2018-Apr-16 22:59N 42°21' W 071°01'0 0.0
2018-Apr-16 22:29N 42°21' W 071°01'0 0.0
2018-Apr-16 21:59N 42°21' W 071°01'0 0.0
2018-Apr-16 21:29N 42°21' W 071°01'0 0.0
2018-Apr-16 20:59N 42°21' W 071°01'0 0.0
2018-Apr-16 20:29N 42°21' W 071°01'0 0.0
2018-Apr-16 19:59N 42°21' W 071°01'0 0.0
2018-Apr-16 19:29N 42°21' W 071°01'0 0.0
2018-Apr-16 18:59N 42°21' W 071°01'0 0.0
2018-Apr-16 18:29N 42°21' W 071°01'0 0.0
2018-Apr-16 17:59N 42°21' W 071°01'0 0.0
2018-Apr-16 17:29N 42°21' W 071°01'0 0.0
2018-Apr-16 16:59N 42°21' W 071°01'0 0.0
2018-Apr-16 16:29N 42°21' W 071°01'0 0.0
2018-Apr-16 15:59N 42°21' W 071°01'0 0.0
2018-Apr-16 15:29N 42°21' W 071°01'0 0.0
2018-Apr-16 14:59N 42°21' W 071°01'0 0.0
2018-Apr-16 14:29N 42°21' W 071°01'0 0.0
2018-Apr-16 13:59N 42°21' W 071°01'0 0.0
2018-Apr-16 13:29N 42°21' W 071°01'0 0.0
2018-Apr-16 12:59N 42°21' W 071°01'0 0.0
2018-Apr-16 12:29N 42°21' W 071°01'0 0.0
2018-Apr-16 11:59N 42°21' W 071°01'0 0.0
2018-Apr-16 11:29N 42°21' W 071°01'0 0.0
2018-Apr-16 10:59N 42°21' W 071°01'0 0.0
2018-Apr-16 10:29N 42°21' W 071°01'0 0.0
2018-Apr-16 09:59N 42°21' W 071°01'0 0.0
2018-Apr-16 09:29N 42°21' W 071°01'0 0.0
2018-Apr-16 08:59N 42°21' W 071°01'0 0.0
2018-Apr-16 08:29N 42°21' W 071°01'0 0.0
2018-Apr-16 07:59N 42°21' W 071°01'0 0.0
2018-Apr-16 07:29N 42°21' W 071°01'0 0.0
2018-Apr-16 06:59N 42°21' W 071°01'0 0.0
2018-Apr-16 06:29N 42°21' W 071°01'0 0.0
2018-Apr-16 05:59N 42°21' W 071°01'0 0.0
2018-Apr-16 05:29N 42°21' W 071°01'0 0.0
2018-Apr-16 04:59N 42°21' W 071°01'0 0.0
2018-Apr-16 04:29N 42°21' W 071°01'0 0.0
2018-Apr-16 03:59N 42°21' W 071°01'0 0.0
2018-Apr-16 03:29N 42°21' W 071°01'0 0.0
2018-Apr-16 02:59N 42°21' W 071°01'0 0.0
2018-Apr-16 02:29N 42°21' W 071°01'0 0.0
2018-Apr-16 01:59N 42°21' W 071°01'0 0.0
2018-Apr-16 01:29N 42°21' W 071°01'0 0.0
2018-Apr-16 00:59N 42°21' W 071°01'0 0.0
2018-Apr-16 00:29N 42°21' W 071°01'0 0.0
2018-Apr-15 23:59N 42°21' W 071°01'0 0.0
2018-Apr-15 23:29N 42°21' W 071°01'0 0.0
2018-Apr-15 22:59N 42°21' W 071°01'0 0.0
2018-Apr-15 22:29N 42°21' W 071°01'0 0.0
2018-Apr-15 21:59N 42°21' W 071°01'0 0.0
2018-Apr-15 21:29N 42°21' W 071°01'0 0.0
2018-Apr-15 20:59N 42°21' W 071°01'0 0.0
2018-Apr-15 20:29N 42°21' W 071°01'0 0.0
2018-Apr-15 19:59N 42°21' W 071°01'0 0.0
2018-Apr-15 19:29N 42°21' W 071°01'0 0.0
2018-Apr-15 18:59N 42°21' W 071°01'0 0.0
2018-Apr-15 18:29N 42°21' W 071°01'0 0.0
2018-Apr-15 17:59N 42°21' W 071°01'0 0.0
2018-Apr-15 17:29N 42°21' W 071°01'0 0.0
2018-Apr-15 16:59N 42°21' W 071°01'0 0.0
2018-Apr-15 16:29N 42°21' W 071°01'0 0.0
2018-Apr-15 15:59N 42°21' W 071°01'0 0.0
2018-Apr-15 15:29N 42°21' W 071°01'0 0.0
2018-Apr-15 15:01N 42°21' W 071°01'1 2.3
2018-Apr-15 14:31N 42°20' W 070°60'4 8.0
2018-Apr-15 14:00N 42°22' W 070°55'5 9.4
2018-Apr-15 13:31N 42°24' W 070°49'3 5.2
2018-Apr-15 13:00N 42°23' W 070°53'4 7.9
2018-Apr-15 12:30N 42°25' W 070°48'2 3.9
2018-Apr-15 12:00N 42°25' W 070°45'0 0.2
2018-Apr-15 11:30N 42°25' W 070°45'0 0.2
2018-Apr-15 11:00N 42°25' W 070°45'0 0.0
2018-Apr-15 10:30N 42°24' W 070°45'0 0.2
2018-Apr-15 10:00N 42°25' W 070°45'0 0.0
2018-Apr-15 09:30N 42°25' W 070°45'0 0.1
2018-Apr-15 09:00N 42°25' W 070°45'0 0.1
2018-Apr-15 08:30N 42°24' W 070°45'0 0.0
2018-Apr-15 08:01N 42°24' W 070°45'0 0.1
2018-Apr-15 07:30N 42°24' W 070°45'0 0.0
2018-Apr-15 07:00N 42°24' W 070°45'0 0.0
2018-Apr-15 06:30N 42°24' W 070°45'0 0.1
2018-Apr-15 06:00N 42°25' W 070°45'0 0.1
2018-Apr-15 05:30N 42°25' W 070°45'0 0.1
2018-Apr-15 05:00N 42°25' W 070°45'0 0.2
2018-Apr-15 04:31N 42°25' W 070°45'0 0.0
2018-Apr-15 04:00N 42°25' W 070°45'2148.5
2018-Apr-15 04:00N 42°24' W 070°42'2 4.7 020 / 201027.8 7.0 2.1 6.3
2018-Apr-15 03:30N 42°24' W 070°45'0 0.1
2018-Apr-15 03:00N 42°25' W 070°45'0 0.1
2018-Apr-15 02:30N 42°25' W 070°45'0 0.0
2018-Apr-15 02:00N 42°25' W 070°45'0 0.1
2018-Apr-15 01:30N 42°25' W 070°45'0 0.1
2018-Apr-15 01:00N 42°25' W 070°45'0 0.0
2018-Apr-15 00:30N 42°25' W 070°45'0 0.1
2018-Apr-15 00:00N 42°25' W 070°45'0 0.1
2018-Apr-14 23:30N 42°25' W 070°45'0 0.0
2018-Apr-14 23:00N 42°25' W 070°45'0 0.1
2018-Apr-14 22:31N 42°25' W 070°45'0 0.0
2018-Apr-14 22:00N 42°25' W 070°45'0 0.1
2018-Apr-14 21:30N 42°25' W 070°45'0 0.0
2018-Apr-14 21:00N 42°25' W 070°45'0 0.1
2018-Apr-14 20:30N 42°25' W 070°45'0 0.2
2018-Apr-14 20:00N 42°24' W 070°45'2 5.0
2018-Apr-14 19:30N 42°23' W 070°42'5 9.6
2018-Apr-14 19:00N 42°22' W 070°36'5 9.7
2018-Apr-14 18:30N 42°21' W 070°29'510.0
2018-Apr-14 18:00N 42°21' W 070°23'5 9.4
2018-Apr-14 17:30N 42°20' W 070°16'5 9.5
2018-Apr-14 17:00N 42°20' W 070°10'5 9.6
2018-Apr-14 16:30N 42°19' W 070°04'5 8.6
2018-Apr-14 15:58N 42°17' W 069°58'4 9.7
2018-Apr-14 15:30N 42°13' W 069°56'146 6.2
2018-Apr-13 16:00N 40°24' W 072°06'5614.0 260 / 151015.0 13.0 6.8 6.3
2018-Apr-13 12:01N 40°24' W 073°19'116.9
2018-Apr-13 11:56N 40°24' W 073°21'715.9
2018-Apr-13 11:30N 40°24' W 073°30'5 9.8
2018-Apr-13 11:00N 40°25' W 073°36'5 9.9
2018-Apr-13 10:30N 40°26' W 073°43'5 9.6
2018-Apr-13 10:00N 40°27' W 073°49'5 9.6
2018-Apr-13 09:31N 40°29' W 073°54'510.8
2018-Apr-13 09:01N 40°31' W 074°00'714.8
2018-Apr-13 08:30N 40°38' W 074°04'3 6.4
2018-Apr-13 08:00N 40°39' W 074°08'2 3.3
2018-Apr-13 07:30N 40°40' W 074°08'1 1.3
2018-Apr-13 06:59N 40°41' W 074°09'0 0.0
2018-Apr-13 06:29N 40°41' W 074°09'0 0.0
2018-Apr-13 05:59N 40°41' W 074°09'0 0.0
2018-Apr-13 05:29N 40°41' W 074°09'0 0.0
2018-Apr-13 04:59N 40°41' W 074°09'0 0.0
2018-Apr-13 04:29N 40°41' W 074°09'0 0.0
2018-Apr-13 03:59N 40°41' W 074°09'0 0.0
2018-Apr-13 03:29N 40°41' W 074°09'0 0.0
2018-Apr-13 02:59N 40°41' W 074°09'0 0.0
2018-Apr-13 02:29N 40°41' W 074°09'0 0.0
2018-Apr-13 01:59N 40°41' W 074°09'0 0.0
2018-Apr-13 01:29N 40°41' W 074°09'0 0.0
2018-Apr-13 00:59N 40°41' W 074°09'0 0.0
2018-Apr-13 00:29N 40°41' W 074°09'0 0.0
2018-Apr-12 23:59N 40°41' W 074°09'0 0.0
2018-Apr-12 23:29N 40°41' W 074°09'0 0.0
2018-Apr-12 22:59N 40°41' W 074°09'0 0.0
2018-Apr-12 22:29N 40°41' W 074°09'0 0.0
2018-Apr-12 21:59N 40°41' W 074°09'0 0.0
2018-Apr-12 21:29N 40°41' W 074°09'0 0.0
2018-Apr-12 20:59N 40°41' W 074°09'0 0.0
2018-Apr-12 20:26N 40°41' W 074°09'0 0.0
2018-Apr-12 19:59N 40°41' W 074°09'0 0.0
2018-Apr-12 19:29N 40°41' W 074°09'0 0.0
2018-Apr-12 18:59N 40°41' W 074°09'0 0.1
2018-Apr-12 18:29N 40°41' W 074°09'0 0.0
2018-Apr-12 17:59N 40°41' W 074°09'0 0.0
2018-Apr-12 17:29N 40°41' W 074°09'0 0.0
2018-Apr-12 16:59N 40°41' W 074°09'0 0.0
2018-Apr-12 16:29N 40°41' W 074°09'0 0.0
2018-Apr-12 15:59N 40°41' W 074°09'0 0.0
2018-Apr-12 15:29N 40°41' W 074°09'0 0.0
2018-Apr-12 14:59N 40°41' W 074°09'0 0.0
2018-Apr-12 14:29N 40°41' W 074°09'0 0.0
2018-Apr-12 13:59N 40°41' W 074°09'0 0.0
2018-Apr-12 13:29N 40°41' W 074°09'0 0.0
2018-Apr-12 12:59N 40°41' W 074°09'0 0.0
2018-Apr-12 12:29N 40°41' W 074°09'0 0.0
2018-Apr-12 11:59N 40°41' W 074°09'0 0.0
2018-Apr-12 11:29N 40°41' W 074°09'0 0.0
2018-Apr-12 10:59N 40°41' W 074°09'0 0.0
2018-Apr-12 10:29N 40°41' W 074°09'0 0.0
2018-Apr-12 09:59N 40°41' W 074°09'0 0.0
2018-Apr-12 09:29N 40°41' W 074°09'0 0.0
2018-Apr-12 08:59N 40°41' W 074°09'0 0.0
2018-Apr-12 08:29N 40°41' W 074°09'0 0.0
2018-Apr-12 07:59N 40°41' W 074°09'0 0.0
2018-Apr-12 07:26N 40°41' W 074°09'0 0.0
2018-Apr-12 06:59N 40°41' W 074°09'0 0.0
2018-Apr-12 06:29N 40°41' W 074°09'0 0.0
2018-Apr-12 05:59N 40°41' W 074°09'0 0.0
2018-Apr-12 05:29N 40°41' W 074°09'0 0.0
2018-Apr-12 04:59N 40°41' W 074°09'0 0.0
2018-Apr-12 04:29N 40°41' W 074°09'0 0.0
2018-Apr-12 03:59N 40°41' W 074°09'0 0.0
2018-Apr-12 03:29N 40°41' W 074°09'0 0.0
2018-Apr-12 02:59N 40°41' W 074°09'0 0.0
2018-Apr-12 02:29N 40°41' W 074°09'0 0.0
2018-Apr-12 01:59N 40°41' W 074°09'0 0.0
2018-Apr-12 01:29N 40°41' W 074°09'0 0.0
2018-Apr-12 00:59N 40°41' W 074°09'0 0.0
2018-Apr-12 00:29N 40°41' W 074°09'0 0.0
2018-Apr-11 23:59N 40°41' W 074°09'0 0.0
2018-Apr-11 23:29N 40°41' W 074°09'0 0.0
2018-Apr-11 22:59N 40°41' W 074°09'0 0.0
2018-Apr-11 22:29N 40°41' W 074°09'0 0.0
2018-Apr-11 21:59N 40°41' W 074°09'0 0.0
2018-Apr-11 21:29N 40°41' W 074°09'0 0.0
2018-Apr-11 20:59N 40°41' W 074°09'0 0.0
2018-Apr-11 20:29N 40°41' W 074°09'0 0.0
2018-Apr-11 19:59N 40°41' W 074°09'0 0.0
2018-Apr-11 19:29N 40°41' W 074°09'0 0.0
2018-Apr-11 18:59N 40°41' W 074°09'0 0.0
2018-Apr-11 18:29N 40°41' W 074°09'0 0.0
2018-Apr-11 17:59N 40°41' W 074°09'0 0.0
2018-Apr-11 17:29N 40°41' W 074°09'0 0.0
2018-Apr-11 16:59N 40°41' W 074°09'0 0.0
2018-Apr-11 16:29N 40°41' W 074°09'0 0.0
2018-Apr-11 15:59N 40°41' W 074°09'0 0.0
2018-Apr-11 15:29N 40°41' W 074°09'0 0.0
2018-Apr-11 14:59N 40°41' W 074°09'0 0.0
2018-Apr-11 14:30N 40°41' W 074°09'1 1.0
2018-Apr-11 14:00N 40°40' W 074°08'2 3.9
2018-Apr-11 13:30N 40°39' W 074°09'3 5.7
2018-Apr-11 13:00N 40°39' W 074°05'4 7.5
2018-Apr-11 12:30N 40°36' W 074°02'5 9.4
2018-Apr-11 12:00N 40°31' W 074°00'5 9.5
2018-Apr-11 11:30N 40°29' W 073°55'5 9.7
2018-Apr-11 11:00N 40°27' W 073°49'3 5.7
2018-Apr-11 10:30N 40°25' W 073°47'3 5.8
2018-Apr-11 10:00N 40°22' W 073°47'6 8.6
2018-Apr-11 09:19N 40°16' W 073°46'1510.5
2018-Apr-11 07:53N 40°01' W 073°44'511.8
2018-Apr-11 07:29N 39°56' W 073°43'611.7
2018-Apr-11 06:59N 39°50' W 073°43'611.7
2018-Apr-11 06:29N 39°44' W 073°42'611.7
2018-Apr-11 06:00N 39°39' W 073°41'711.3
2018-Apr-11 05:22N 39°32' W 073°41'  
Track history (hours):
 
Tides and Currents Weather Stations Pressure Air Temp Water Temp Dewpoint Dewpoint Depression Visibility Wind Speed Wind Dir Waves Ship Positions

Cosco Indonesia

Last reported at 2018-Apr-19 22:07 UTC. Time now 2018-Apr-20 05:13 UTC.
Position N 36°51' W 075°37'.

Length 334 m; draft 10.7 m.

Type: Ship (hazmat cat A). MMSI: 477831200.

Date/timePositionNaut miles runAvg speedWind from/ knotsBaromVisibWave heightAir tempDewpointWater temp
2018-Apr-19 22:07N 36°51' W 075°37'414 8.3
2018-Apr-17 20:11N 42°13' W 069°59'2 9.7
2018-Apr-17 19:57N 42°15' W 070°01'4 8.9
2018-Apr-17 19:31N 42°17' W 070°05'5 9.6
2018-Apr-17 19:00N 42°18' W 070°12'510.2
2018-Apr-17 18:30N 42°18' W 070°19'5 9.7
2018-Apr-17 18:00N 42°19' W 070°25'5 9.8
2018-Apr-17 17:30N 42°19' W 070°32'510.1
2018-Apr-17 17:01N 42°19' W 070°39'5 9.8
2018-Apr-17 16:30N 42°21' W 070°45'5 9.8
2018-Apr-17 16:00N 42°24' W 070°50'612.0
2018-Apr-17 15:30N 42°20' W 070°57'3 6.1
2018-Apr-17 15:00N 42°21' W 071°01'0 0.3
2018-Apr-17 14:29N 42°21' W 071°01'0 0.0
2018-Apr-17 13:59N 42°21' W 071°01'0 0.0
2018-Apr-17 13:30N 42°21' W 071°01'0 0.0
2018-Apr-17 12:56N 42°21' W 071°01'0 0.0
2018-Apr-17 12:29N 42°21' W 071°01'0 0.0
2018-Apr-17 11:56N 42°21' W 071°01'0 0.0
2018-Apr-17 11:29N 42°21' W 071°01'0 0.0
2018-Apr-17 10:53N 42°21' W 071°01'0 0.0
2018-Apr-17 10:29N 42°21' W 071°01'0 0.0
2018-Apr-17 09:59N 42°21' W 071°01'0 0.0
2018-Apr-17 09:29N 42°21' W 071°01'0 0.0
2018-Apr-17 08:59N 42°21' W 071°01'0 0.0
2018-Apr-17 08:26N 42°21' W 071°01'0 0.0
2018-Apr-17 07:59N 42°21' W 071°01'0 0.0
2018-Apr-17 07:29N 42°21' W 071°01'0 0.0
2018-Apr-17 06:59N 42°21' W 071°01'0 0.0
2018-Apr-17 06:29N 42°21' W 071°01'0 0.0
2018-Apr-17 05:56N 42°21' W 071°01'0 0.0
2018-Apr-17 05:26N 42°21' W 071°01'0 0.0
2018-Apr-17 04:59N 42°21' W 071°01'0 0.0
2018-Apr-17 04:29N 42°21' W 071°01'0 0.0
2018-Apr-17 03:56N 42°21' W 071°01'0 0.0
2018-Apr-17 03:29N 42°21' W 071°01'0 0.0
2018-Apr-17 02:59N 42°21' W 071°01'0 0.0
2018-Apr-17 02:29N 42°21' W 071°01'0 0.0
2018-Apr-17 01:59N 42°21' W 071°01'0 0.0
2018-Apr-17 01:29N 42°21' W 071°01'0 0.0
2018-Apr-17 00:59N 42°21' W 071°01'0 0.0
2018-Apr-17 00:29N 42°21' W 071°01'0 0.0
2018-Apr-16 23:59N 42°21' W 071°01'0 0.0
2018-Apr-16 23:29N 42°21' W 071°01'0 0.0
2018-Apr-16 22:59N 42°21' W 071°01'0 0.0
2018-Apr-16 22:29N 42°21' W 071°01'0 0.0
2018-Apr-16 21:59N 42°21' W 071°01'0 0.0
2018-Apr-16 21:29N 42°21' W 071°01'0 0.0
2018-Apr-16 20:59N 42°21' W 071°01'0 0.0
2018-Apr-16 20:29N 42°21' W 071°01'0 0.0
2018-Apr-16 19:59N 42°21' W 071°01'0 0.0
2018-Apr-16 19:29N 42°21' W 071°01'0 0.0
2018-Apr-16 18:59N 42°21' W 071°01'0 0.0
2018-Apr-16 18:29N 42°21' W 071°01'0 0.0
2018-Apr-16 17:59N 42°21' W 071°01'0 0.0
2018-Apr-16 17:29N 42°21' W 071°01'0 0.0
2018-Apr-16 16:59N 42°21' W 071°01'0 0.0
2018-Apr-16 16:29N 42°21' W 071°01'0 0.0
2018-Apr-16 15:59N 42°21' W 071°01'0 0.0
2018-Apr-16 15:29N 42°21' W 071°01'0 0.0
2018-Apr-16 14:59N 42°21' W 071°01'0 0.0
2018-Apr-16 14:29N 42°21' W 071°01'0 0.0
2018-Apr-16 13:59N 42°21' W 071°01'0 0.0
2018-Apr-16 13:29N 42°21' W 071°01'0 0.0
2018-Apr-16 12:59N 42°21' W 071°01'0 0.0
2018-Apr-16 12:29N 42°21' W 071°01'0 0.0
2018-Apr-16 11:59N 42°21' W 071°01'0 0.0
2018-Apr-16 11:29N 42°21' W 071°01'0 0.0
2018-Apr-16 10:59N 42°21' W 071°01'0 0.0
2018-Apr-16 10:29N 42°21' W 071°01'0 0.0
2018-Apr-16 09:59N 42°21' W 071°01'0 0.0
2018-Apr-16 09:29N 42°21' W 071°01'0 0.0
2018-Apr-16 08:59N 42°21' W 071°01'0 0.0
2018-Apr-16 08:29N 42°21' W 071°01'0 0.0
2018-Apr-16 07:59N 42°21' W 071°01'0 0.0
2018-Apr-16 07:29N 42°21' W 071°01'0 0.0
2018-Apr-16 06:59N 42°21' W 071°01'0 0.0
2018-Apr-16 06:29N 42°21' W 071°01'0 0.0
2018-Apr-16 05:59N 42°21' W 071°01'0 0.0
2018-Apr-16 05:29N 42°21' W 071°01'0 0.0
2018-Apr-16 04:59N 42°21' W 071°01'0 0.0
2018-Apr-16 04:29N 42°21' W 071°01'0 0.0
2018-Apr-16 03:59N 42°21' W 071°01'0 0.0
2018-Apr-16 03:29N 42°21' W 071°01'0 0.0
2018-Apr-16 02:59N 42°21' W 071°01'0 0.0
2018-Apr-16 02:29N 42°21' W 071°01'0 0.0
2018-Apr-16 01:59N 42°21' W 071°01'0 0.0
2018-Apr-16 01:29N 42°21' W 071°01'0 0.0
2018-Apr-16 00:59N 42°21' W 071°01'0 0.0
2018-Apr-16 00:29N 42°21' W 071°01'0 0.0
2018-Apr-15 23:59N 42°21' W 071°01'0 0.0
2018-Apr-15 23:29N 42°21' W 071°01'0 0.0
2018-Apr-15 22:59N 42°21' W 071°01'0 0.0
2018-Apr-15 22:29N 42°21' W 071°01'0 0.0
2018-Apr-15 21:59N 42°21' W 071°01'0 0.0
2018-Apr-15 21:29N 42°21' W 071°01'0 0.0
2018-Apr-15 20:59N 42°21' W 071°01'0 0.0
2018-Apr-15 20:29N 42°21' W 071°01'0 0.0
2018-Apr-15 19:59N 42°21' W 071°01'0 0.0
2018-Apr-15 19:29N 42°21' W 071°01'0 0.0
2018-Apr-15 18:59N 42°21' W 071°01'0 0.0
2018-Apr-15 18:29N 42°21' W 071°01'0 0.0
2018-Apr-15 17:59N 42°21' W 071°01'0 0.0
2018-Apr-15 17:29N 42°21' W 071°01'0 0.0
2018-Apr-15 16:59N 42°21' W 071°01'0 0.0
2018-Apr-15 16:29N 42°21' W 071°01'0 0.0
2018-Apr-15 15:59N 42°21' W 071°01'0 0.0
2018-Apr-15 15:29N 42°21' W 071°01'0 0.0
2018-Apr-15 15:01N 42°21' W 071°01'1 2.3
2018-Apr-15 14:31N 42°20' W 070°60'4 8.0
2018-Apr-15 14:00N 42°22' W 070°55'5 9.4
2018-Apr-15 13:31N 42°24' W 070°49'3 5.2
2018-Apr-15 13:00N 42°23' W 070°53'4 7.9
2018-Apr-15 12:30N 42°25' W 070°48'2 3.9
2018-Apr-15 12:00N 42°25' W 070°45'0 0.2
2018-Apr-15 11:30N 42°25' W 070°45'0 0.2
2018-Apr-15 11:00N 42°25' W 070°45'0 0.0
2018-Apr-15 10:30N 42°24' W 070°45'0 0.2
2018-Apr-15 10:00N 42°25' W 070°45'0 0.0
2018-Apr-15 09:30N 42°25' W 070°45'0 0.1
2018-Apr-15 09:00N 42°25' W 070°45'0 0.1
2018-Apr-15 08:30N 42°24' W 070°45'0 0.0
2018-Apr-15 08:01N 42°24' W 070°45'0 0.1
2018-Apr-15 07:30N 42°24' W 070°45'0 0.0
2018-Apr-15 07:00N 42°24' W 070°45'0 0.0
2018-Apr-15 06:30N 42°24' W 070°45'0 0.1
2018-Apr-15 06:00N 42°25' W 070°45'0 0.1
2018-Apr-15 05:30N 42°25' W 070°45'0 0.1
2018-Apr-15 05:00N 42°25' W 070°45'0 0.2
2018-Apr-15 04:31N 42°25' W 070°45'0 0.0
2018-Apr-15 04:00N 42°25' W 070°45'2148.5
2018-Apr-15 04:00N 42°24' W 070°42'2 4.7 020 / 201027.8 7.0 2.1 6.3
2018-Apr-15 03:30N 42°24' W 070°45'0 0.1
2018-Apr-15 03:00N 42°25' W 070°45'0 0.1
2018-Apr-15 02:30N 42°25' W 070°45'0 0.0
2018-Apr-15 02:00N 42°25' W 070°45'0 0.1
2018-Apr-15 01:30N 42°25' W 070°45'0 0.1
2018-Apr-15 01:00N 42°25' W 070°45'0 0.0
2018-Apr-15 00:30N 42°25' W 070°45'0 0.1
2018-Apr-15 00:00N 42°25' W 070°45'0 0.1
2018-Apr-14 23:30N 42°25' W 070°45'0 0.0
2018-Apr-14 23:00N 42°25' W 070°45'0 0.1
2018-Apr-14 22:31N 42°25' W 070°45'0 0.0
2018-Apr-14 22:00N 42°25' W 070°45'0 0.1
2018-Apr-14 21:30N 42°25' W 070°45'0 0.0
2018-Apr-14 21:00N 42°25' W 070°45'0 0.1
2018-Apr-14 20:30N 42°25' W 070°45'0 0.2
2018-Apr-14 20:00N 42°24' W 070°45'2 5.0
2018-Apr-14 19:30N 42°23' W 070°42'5 9.6
2018-Apr-14 19:00N 42°22' W 070°36'5 9.7
2018-Apr-14 18:30N 42°21' W 070°29'510.0
2018-Apr-14 18:00N 42°21' W 070°23'5 9.4
2018-Apr-14 17:30N 42°20' W 070°16'5 9.5
2018-Apr-14 17:00N 42°20' W 070°10'5 9.6
2018-Apr-14 16:30N 42°19' W 070°04'5 8.6
2018-Apr-14 15:58N 42°17' W 069°58'4 9.7
2018-Apr-14 15:30N 42°13' W 069°56'146 6.2
2018-Apr-13 16:00N 40°24' W 072°06'5614.0 260 / 151015.0 13.0 6.8 6.3
2018-Apr-13 12:01N 40°24' W 073°19'116.9
2018-Apr-13 11:56N 40°24' W 073°21'715.9
2018-Apr-13 11:30N 40°24' W 073°30'5 9.8
2018-Apr-13 11:00N 40°25' W 073°36'5 9.9
2018-Apr-13 10:30N 40°26' W 073°43'5 9.6
2018-Apr-13 10:00N 40°27' W 073°49'5 9.6
2018-Apr-13 09:31N 40°29' W 073°54'510.8
2018-Apr-13 09:01N 40°31' W 074°00'714.8
2018-Apr-13 08:30N 40°38' W 074°04'3 6.4
2018-Apr-13 08:00N 40°39' W 074°08'2 3.3
2018-Apr-13 07:30N 40°40' W 074°08'1 1.3
2018-Apr-13 06:59N 40°41' W 074°09'0 0.0
2018-Apr-13 06:29N 40°41' W 074°09'0 0.0
2018-Apr-13 05:59N 40°41' W 074°09'0 0.0
2018-Apr-13 05:29N 40°41' W 074°09'0 0.0
2018-Apr-13 04:59N 40°41' W 074°09'0 0.0
2018-Apr-13 04:29N 40°41' W 074°09'0 0.0
2018-Apr-13 03:59N 40°41' W 074°09'0 0.0
2018-Apr-13 03:29N 40°41' W 074°09'0 0.0
2018-Apr-13 02:59N 40°41' W 074°09'0 0.0
2018-Apr-13 02:29N 40°41' W 074°09'0 0.0
2018-Apr-13 01:59N 40°41' W 074°09'0 0.0
2018-Apr-13 01:29N 40°41' W 074°09'0 0.0
2018-Apr-13 00:59N 40°41' W 074°09'0 0.0
2018-Apr-13 00:29N 40°41' W 074°09'0 0.0
2018-Apr-12 23:59N 40°41' W 074°09'0 0.0
2018-Apr-12 23:29N 40°41' W 074°09'0 0.0
2018-Apr-12 22:59N 40°41' W 074°09'0 0.0
2018-Apr-12 22:29N 40°41' W 074°09'0 0.0
2018-Apr-12 21:59N 40°41' W 074°09'0 0.0
2018-Apr-12 21:29N 40°41' W 074°09'0 0.0
2018-Apr-12 20:59N 40°41' W 074°09'0 0.0
2018-Apr-12 20:26N 40°41' W 074°09'0 0.0
2018-Apr-12 19:59N 40°41' W 074°09'0 0.0
2018-Apr-12 19:29N 40°41' W 074°09'0 0.0
2018-Apr-12 18:59N 40°41' W 074°09'0 0.1
2018-Apr-12 18:29N 40°41' W 074°09'0 0.0
2018-Apr-12 17:59N 40°41' W 074°09'0 0.0
2018-Apr-12 17:29N 40°41' W 074°09'0 0.0
2018-Apr-12 16:59N 40°41' W 074°09'0 0.0
2018-Apr-12 16:29N 40°41' W 074°09'0 0.0
2018-Apr-12 15:59N 40°41' W 074°09'0 0.0
2018-Apr-12 15:29N 40°41' W 074°09'0 0.0
2018-Apr-12 14:59N 40°41' W 074°09'0 0.0
2018-Apr-12 14:29N 40°41' W 074°09'0 0.0
2018-Apr-12 13:59N 40°41' W 074°09'0 0.0
2018-Apr-12 13:29N 40°41' W 074°09'0 0.0
2018-Apr-12 12:59N 40°41' W 074°09'0 0.0
2018-Apr-12 12:29N 40°41' W 074°09'0 0.0
2018-Apr-12 11:59N 40°41' W 074°09'0 0.0
2018-Apr-12 11:29N 40°41' W 074°09'0 0.0
2018-Apr-12 10:59N 40°41' W 074°09'0 0.0
2018-Apr-12 10:29N 40°41' W 074°09'0 0.0
2018-Apr-12 09:59N 40°41' W 074°09'0 0.0
2018-Apr-12 09:29N 40°41' W 074°09'0 0.0
2018-Apr-12 08:59N 40°41' W 074°09'0 0.0
2018-Apr-12 08:29N 40°41' W 074°09'0 0.0
2018-Apr-12 07:59N 40°41' W 074°09'0 0.0
2018-Apr-12 07:26N 40°41' W 074°09'0 0.0
2018-Apr-12 06:59N 40°41' W 074°09'0 0.0
2018-Apr-12 06:29N 40°41' W 074°09'0 0.0
2018-Apr-12 05:59N 40°41' W 074°09'0 0.0
2018-Apr-12 05:29N 40°41' W 074°09'0 0.0
2018-Apr-12 04:59N 40°41' W 074°09'0 0.0
2018-Apr-12 04:29N 40°41' W 074°09'0 0.0
2018-Apr-12 03:59N 40°41' W 074°09'0 0.0
2018-Apr-12 03:29N 40°41' W 074°09'0 0.0
2018-Apr-12 02:59N 40°41' W 074°09'0 0.0
2018-Apr-12 02:29N 40°41' W 074°09'0 0.0
2018-Apr-12 01:59N 40°41' W 074°09'0 0.0
2018-Apr-12 01:29N 40°41' W 074°09'0 0.0
2018-Apr-12 00:59N 40°41' W 074°09'0 0.0
2018-Apr-12 00:29N 40°41' W 074°09'0 0.0
2018-Apr-11 23:59N 40°41' W 074°09'0 0.0
2018-Apr-11 23:29N 40°41' W 074°09'0 0.0
2018-Apr-11 22:59N 40°41' W 074°09'0 0.0
2018-Apr-11 22:29N 40°41' W 074°09'0 0.0
2018-Apr-11 21:59N 40°41' W 074°09'0 0.0
2018-Apr-11 21:29N 40°41' W 074°09'0 0.0
2018-Apr-11 20:59N 40°41' W 074°09'0 0.0
2018-Apr-11 20:29N 40°41' W 074°09'0 0.0
2018-Apr-11 19:59N 40°41' W 074°09'0 0.0
2018-Apr-11 19:29N 40°41' W 074°09'0 0.0
2018-Apr-11 18:59N 40°41' W 074°09'0 0.0
2018-Apr-11 18:29N 40°41' W 074°09'0 0.0
2018-Apr-11 17:59N 40°41' W 074°09'0 0.0
2018-Apr-11 17:29N 40°41' W 074°09'0 0.0
2018-Apr-11 16:59N 40°41' W 074°09'0 0.0
2018-Apr-11 16:29N 40°41' W 074°09'0 0.0
2018-Apr-11 15:59N 40°41' W 074°09'0 0.0
2018-Apr-11 15:29N 40°41' W 074°09'0 0.0
2018-Apr-11 14:59N 40°41' W 074°09'0 0.0
2018-Apr-11 14:30N 40°41' W 074°09'1 1.0
2018-Apr-11 14:00N 40°40' W 074°08'2 3.9
2018-Apr-11 13:30N 40°39' W 074°09'3 5.7
2018-Apr-11 13:00N 40°39' W 074°05'4 7.5
2018-Apr-11 12:30N 40°36' W 074°02'5 9.4
2018-Apr-11 12:00N 40°31' W 074°00'5 9.5
2018-Apr-11 11:30N 40°29' W 073°55'5 9.7
2018-Apr-11 11:00N 40°27' W 073°49'3 5.7
2018-Apr-11 10:30N 40°25' W 073°47'3 5.8
2018-Apr-11 10:00N 40°22' W 073°47'6 8.6
2018-Apr-11 09:19N 40°16' W 073°46'1510.5
2018-Apr-11 07:53N 40°01' W 073°44'511.8
2018-Apr-11 07:29N 39°56' W 073°43'611.7
2018-Apr-11 06:59N 39°50' W 073°43'611.7
2018-Apr-11 06:29N 39°44' W 073°42'611.7
2018-Apr-11 06:00N 39°39' W 073°41'711.3
2018-Apr-11 05:22N 39°32' W 073°41'  

Dump ship's entire track history